Apus — XUCT7 — position and weather

sailwx.info

Track history (hours):
 
Tides and Currents Weather Stations Pressure Air Temp Water Temp Dewpoint Dewpoint Depression Visibility Wind Speed Wind Dir Waves Ship Positions

Apus

Last reported at 2015-Aug-16 22:29 UTC. Time now 2015-Sep-05 05:50 UTC.
Position N 31°21' E 032°20'.
Warning: this ship's position is 19 days out of date.

Length 93 m; draft 6.3 m.

Type: Cargo ship. MMSI: 515102000.

Date/timePositionNaut miles runAvg speedWind from/ knotsBaromVisibWave heightAir tempDewpointWater temp
2015-Aug-16 22:29N 31°21' E 032°20'0 0.0
2015-Aug-16 20:17N 31°21' E 032°20'0 0.0
2015-Aug-16 18:20N 31°21' E 032°20'0 0.0
2015-Aug-16 17:32N 31°21' E 032°20'0 0.0
2015-Aug-16 13:23N 31°21' E 032°20'0 0.0
2015-Aug-16 12:23N 31°21' E 032°20'0 0.0
2015-Aug-16 11:32N 31°21' E 032°20'0 0.0
2015-Aug-16 10:29N 31°21' E 032°20'196 9.7
2015-Aug-15 14:16N 33°47' E 029°46'21313.3
2015-Aug-14 22:20N 36°25' E 026°52'1713.3
2015-Aug-14 21:05N 36°37' E 026°37'713.1
2015-Aug-14 20:33N 36°42' E 026°32'1313.2
2015-Aug-14 19:33N 36°51' E 026°20'1413.6
2015-Aug-14 18:33N 37°02' E 026°10'1313.3
2015-Aug-14 17:33N 37°14' E 026°02'1313.2
2015-Aug-14 16:34N 37°26' E 025°55'1312.9
2015-Aug-14 15:33N 37°39' E 025°52'  
2015-Aug-07 17:22N 37°34' E 025°52'1011.7
2015-Aug-07 16:33N 37°25' E 025°56'1211.2
2015-Aug-07 15:31N 37°15' E 026°03'1511.0
2015-Aug-07 14:09N 37°01' E 026°11'710.8
2015-Aug-07 13:28N 36°55' E 026°17'1110.9
2015-Aug-07 12:29N 36°47' E 026°26'10711.5
2015-Aug-07 03:09N 35°31' E 027°59'  
Track history (hours):
 
Tides and Currents Weather Stations Pressure Air Temp Water Temp Dewpoint Dewpoint Depression Visibility Wind Speed Wind Dir Waves Ship Positions

Apus

Last reported at 2015-Aug-16 22:29 UTC. Time now 2015-Sep-05 05:50 UTC.
Position N 31°21' E 032°20'.
Warning: this ship's position is 19 days out of date.

Length 93 m; draft 6.3 m.

Type: Cargo ship. MMSI: 515102000.

Date/timePositionNaut miles runAvg speedWind from/ knotsBaromVisibWave heightAir tempDewpointWater temp
2015-Aug-16 22:29N 31°21' E 032°20'0 0.0
2015-Aug-16 20:17N 31°21' E 032°20'0 0.0
2015-Aug-16 18:20N 31°21' E 032°20'0 0.0
2015-Aug-16 17:32N 31°21' E 032°20'0 0.0
2015-Aug-16 13:23N 31°21' E 032°20'0 0.0
2015-Aug-16 12:23N 31°21' E 032°20'0 0.0
2015-Aug-16 11:32N 31°21' E 032°20'0 0.0
2015-Aug-16 10:29N 31°21' E 032°20'196 9.7
2015-Aug-15 14:16N 33°47' E 029°46'21313.3
2015-Aug-14 22:20N 36°25' E 026°52'1713.3
2015-Aug-14 21:05N 36°37' E 026°37'713.1
2015-Aug-14 20:33N 36°42' E 026°32'1313.2
2015-Aug-14 19:33N 36°51' E 026°20'1413.6
2015-Aug-14 18:33N 37°02' E 026°10'1313.3
2015-Aug-14 17:33N 37°14' E 026°02'1313.2
2015-Aug-14 16:34N 37°26' E 025°55'1312.9
2015-Aug-14 15:33N 37°39' E 025°52'  
2015-Aug-07 17:22N 37°34' E 025°52'1011.7
2015-Aug-07 16:33N 37°25' E 025°56'1211.2
2015-Aug-07 15:31N 37°15' E 026°03'1511.0
2015-Aug-07 14:09N 37°01' E 026°11'710.8
2015-Aug-07 13:28N 36°55' E 026°17'1110.9
2015-Aug-07 12:29N 36°47' E 026°26'10711.5
2015-Aug-07 03:09N 35°31' E 027°59'  

Dump ship's entire track history